KGNV/GNV METAR and TAF weather

Enter ICAO airport designator
Station Type Date Time Source
KGNV METAR 2019/09/21 03:53 UTC NOAA

KGNV 210353Z AUTO 05004KT 10SM CLR 21/19 A3021 RMK AO2 SLP227 T02110189


Station Type Date Time Source
KGNV Decoded METAR 2019/09/21 03:53 UTC NOAA

GAINESVILLE REGIONAL AIRPORT , FL, United States (KGNV) 29-42N 082-17W 45M
Sep 20, 2019 - 11:53 PM EDT / 2019.09.21 0353 UTC
Wind: from the NE (050 degrees) at 5 MPH (4 KT):0
Visibility: 10 mile(s):0
Sky conditions: clear
Temperature: 70.0 F (21.1 C)
Dew Point: 66.0 F (18.9 C)
Relative Humidity: 87%
Pressure (altimeter): 30.21 in. Hg (1023 hPa)
ob: KGNV 210353Z AUTO 05004KT 10SM CLR 21/19 A3021 RMK AO2 SLP227 T02110189
cycle: 4

Station Type Date Time Source
KGNV TAF 2019/09/20 21:12 UTC NOAA

TAF
AMD KGNV 202109Z 2021/2118 07013KT P6SM VCSH SCT025 BKN050
FM210000 07008KT P6SM FEW020 SCT040
FM210600 04004KT P6SM FEW015 FEW030
TEMPO 2108/2112 5SM BR
FM211400 08013G20KT P6SM SCT020 SCT040

Example: see airport list